Annapolis, Indiana
Current Conditions -  °F | °C
As of 1:55 AM on Sunday 26 Oct 2014 (Local Time) from KPRG Reporting Station
Clear Clear  
Wind Chill: 52°   Ceiling: Unl
Heat Index: 52°   Visibility: 10mi
Dew Point: 41°   Wind: 5mph
Humidity: 67%   Direction: 320°NW
Pressure: 30.01"   Gusts: NA
Location:  39.8468°N, 87.2662°W
Report Text: KPRG 260555Z AUTO 32004KT 10SM CLR 11/05 A3001 RMK AO2 T01110051 10180 20111 402610111
Loading
Personal Weather Stations






























Interactive Weather Map New forecast layout! Learn more

10-Day Weather Forecast

Advertisements
Track Severe Weather on mobile